Time;durP1;ratioP1;P1;durP2;ratioP2;P2;SDS_P1;SDS_P2;PMS_P1;PMS_P2;Temp;Humidity;BMP_temperature;BMP_pressure;BME280_temperature;BME280_humidity;BME280_pressure;Samples;Min_cycle;Max_cycle;Signal;HPM_P1;HPM_P2
2021/07/06 00:00:27;;;;;;;1.60;1.45;;;17.00;99.90;;;;;;4994847;28;20505;-91
2021/07/06 00:02:54;;;;;;;1.63;1.52;;;17.00;99.90;;;;;;4994647;28;20137;-90
2021/07/06 00:05:21;;;;;;;1.55;1.40;;;17.00;99.90;;;;;;4996400;28;20050;-91
2021/07/06 00:07:49;;;;;;;1.80;1.70;;;16.90;99.90;;;;;;4994522;28;20570;-91
2021/07/06 00:10:18;;;;;;;1.70;1.48;;;16.90;99.90;;;;;;4994496;28;20145;-92
2021/07/06 00:12:45;;;;;;;1.80;1.45;;;16.90;99.90;;;;;;4994741;28;20073;-91
2021/07/06 00:15:14;;;;;;;1.60;1.50;;;16.80;99.90;;;;;;4994585;28;20114;-91
2021/07/06 00:17:41;;;;;;;2.47;1.30;;;16.70;99.90;;;;;;5004428;28;20070;-89
2021/07/06 00:20:11;;;;;;;2.03;1.20;;;16.70;99.90;;;;;;5002772;28;20065;-91
2021/07/06 00:22:38;;;;;;;1.33;1.23;;;16.60;99.90;;;;;;4993309;28;20129;-91
2021/07/06 00:25:06;;;;;;;1.67;1.17;;;16.50;99.90;;;;;;4994307;28;20463;-91
2021/07/06 00:27:33;;;;;;;1.50;1.40;;;16.30;99.90;;;;;;4993981;28;20141;-91
2021/07/06 00:30:00;;;;;;;1.40;1.40;;;16.20;99.90;;;;;;4994117;28;20129;-93
2021/07/06 00:32:27;;;;;;;2.42;1.23;;;16.10;99.90;;;;;;4993967;28;20050;-90
2021/07/06 00:34:54;;;;;;;1.45;1.35;;;16.00;99.90;;;;;;4993812;28;20050;-91
2021/07/06 00:37:20;;;;;;;1.60;1.50;;;16.00;99.90;;;;;;4993773;28;20061;-91
2021/07/06 00:39:47;;;;;;;2.15;1.40;;;15.90;99.90;;;;;;4993847;28;20050;-90
2021/07/06 00:42:14;;;;;;;3.92;1.52;;;15.80;99.90;;;;;;4994122;28;20058;-90
2021/07/06 00:44:40;;;;;;;1.83;1.70;;;15.70;99.90;;;;;;4993460;28;20421;-91
2021/07/06 00:47:07;;;;;;;3.08;1.98;;;15.60;99.90;;;;;;4993845;28;20426;-91
2021/07/06 00:49:35;;;;;;;1.80;1.50;;;15.50;99.90;;;;;;4993708;28;20253;-90
2021/07/06 00:52:02;;;;;;;3.03;1.75;;;15.50;99.90;;;;;;4994216;28;20132;-90
2021/07/06 00:54:29;;;;;;;5.85;2.00;;;15.40;99.90;;;;;;4994519;28;20054;-90
2021/07/06 00:56:56;;;;;;;3.20;1.80;;;15.30;99.90;;;;;;4993902;28;20132;-90
2021/07/06 00:59:23;;;;;;;2.17;2.00;;;15.30;99.90;;;;;;4993953;28;20050;-92
2021/07/06 01:01:50;;;;;;;5.80;1.88;;;15.30;99.90;;;;;;4993496;28;20054;-88
2021/07/06 01:04:18;;;;;;;2.00;1.90;;;15.20;99.90;;;;;;4993745;28;20134;-90
2021/07/06 01:06:45;;;;;;;5.75;2.38;;;15.20;99.90;;;;;;4993432;28;20046;-90
2021/07/06 01:09:11;;;;;;;2.40;1.92;;;15.10;99.90;;;;;;4993913;28;20562;-90
2021/07/06 01:11:38;;;;;;;3.35;2.58;;;15.10;99.90;;;;;;4993404;28;20066;-89
2021/07/06 01:14:05;;;;;;;3.70;2.30;;;15.00;99.90;;;;;;4993600;28;20418;-91
2021/07/06 01:16:31;;;;;;;3.53;2.40;;;14.90;99.90;;;;;;4992878;28;20050;-92
2021/07/06 01:18:59;;;;;;;6.75;2.40;;;14.90;99.90;;;;;;4993628;28;20479;-91
2021/07/06 01:21:25;;;;;;;3.13;2.13;;;14.90;99.90;;;;;;4993557;28;20080;-91
2021/07/06 01:23:52;;;;;;;2.55;2.35;;;14.90;99.90;;;;;;4993443;28;20133;-91
2021/07/06 01:26:19;;;;;;;4.03;2.22;;;14.90;99.90;;;;;;4993174;28;20058;-90
2021/07/06 01:28:46;;;;;;;3.15;2.85;;;14.90;99.90;;;;;;4992811;28;20074;-92
2021/07/06 01:31:13;;;;;;;4.60;2.55;;;14.90;99.90;;;;;;4993077;28;20133;-90
2021/07/06 01:33:40;;;;;;;3.25;2.90;;;14.80;99.90;;;;;;4998337;28;20558;-92
2021/07/06 01:36:09;;;;;;;4.03;3.03;;;14.80;99.90;;;;;;5002139;28;20084;-91
2021/07/06 01:38:36;;;;;;;4.05;2.67;;;14.80;99.90;;;;;;5015803;28;20074;-91
2021/07/06 01:41:05;;;;;;;2.80;2.60;;;14.80;99.90;;;;;;5000775;28;20081;-88
2021/07/06 01:43:32;;;;;;;5.03;2.78;;;14.80;99.90;;;;;;4999417;28;20077;-91
2021/07/06 01:45:59;;;;;;;2.33;2.20;;;14.80;99.90;;;;;;5004695;28;20113;-90
2021/07/06 01:48:26;;;;;;;3.25;2.80;;;14.80;99.90;;;;;;5006305;28;20050;-92
2021/07/06 01:50:52;;;;;;;3.13;2.55;;;14.80;99.90;;;;;;5008364;28;20129;-89
2021/07/06 01:53:23;;;;;;;3.13;2.92;;;14.70;99.90;;;;;;4999745;28;20142;-90
2021/07/06 01:55:52;;;;;;;4.32;2.72;;;14.70;99.90;;;;;;4999365;28;20050;-89
2021/07/06 01:58:21;;;;;;;4.13;2.65;;;14.60;99.90;;;;;;4999743;28;20440;-89
2021/07/06 02:00:51;;;;;;;2.30;2.20;;;14.60;99.90;;;;;;5000515;28;20047;-90
2021/07/06 02:03:18;;;;;;;2.83;2.72;;;14.50;99.90;;;;;;4999540;28;20054;-90
2021/07/06 02:05:47;;;;;;;2.95;2.60;;;14.50;99.90;;;;;;4999385;28;20054;-89
2021/07/06 02:08:19;;;;;;;3.20;3.00;;;14.50;99.90;;;;;;5000436;28;20136;-89
2021/07/06 02:10:49;;;;;;;3.33;3.13;;;14.50;99.90;;;;;;4999861;28;20137;-90
2021/07/06 02:13:20;;;;;;;3.42;2.80;;;14.30;99.90;;;;;;4999734;28;20042;-90
2021/07/06 02:15:48;;;;;;;3.03;2.70;;;14.30;99.90;;;;;;5000422;28;20510;-90
2021/07/06 02:18:20;;;;;;;2.70;2.28;;;14.40;99.90;;;;;;4999551;28;20058;-89
2021/07/06 02:20:53;;;;;;;5.20;2.42;;;14.30;99.90;;;;;;4999433;28;20129;-89
2021/07/06 02:23:20;;;;;;;2.58;2.47;;;14.20;99.90;;;;;;4999069;28;20478;-89
2021/07/06 02:25:48;;;;;;;3.42;2.58;;;14.10;99.90;;;;;;4999149;28;20042;-89
2021/07/06 02:28:15;;;;;;;3.47;2.72;;;14.10;99.90;;;;;;4999208;28;20472;-90
2021/07/06 02:30:42;;;;;;;3.13;2.97;;;14.10;99.90;;;;;;4999217;28;20096;-89
2021/07/06 02:33:09;;;;;;;6.47;2.80;;;14.10;99.90;;;;;;4999187;28;20046;-90
2021/07/06 02:35:36;;;;;;;4.25;3.05;;;14.10;99.90;;;;;;4998569;28;20053;-89
2021/07/06 02:38:03;;;;;;;3.42;2.80;;;14.10;99.90;;;;;;4999205;28;20054;-90
2021/07/06 02:40:30;;;;;;;2.90;2.70;;;14.00;99.90;;;;;;4998975;28;20046;-89
2021/07/06 02:42:58;;;;;;;2.55;2.40;;;14.00;99.90;;;;;;4999220;28;20050;-90
2021/07/06 02:45:27;;;;;;;4.43;3.00;;;13.90;99.90;;;;;;4995245;28;20046;-89
2021/07/06 02:47:53;;;;;;;5.97;2.88;;;13.90;99.90;;;;;;4995945;28;20064;-89
2021/07/06 02:50:22;;;;;;;2.88;2.65;;;13.90;99.90;;;;;;4996006;28;20050;-89
2021/07/06 02:52:50;;;;;;;2.72;2.53;;;13.90;99.90;;;;;;4995082;28;20046;-90
2021/07/06 02:55:18;;;;;;;3.35;2.97;;;13.80;99.90;;;;;;4996692;28;20077;-89
2021/07/06 02:57:45;;;;;;;3.60;3.10;;;13.80;99.90;;;;;;5003580;28;20104;-89
2021/07/06 03:00:15;;;;;;;4.50;3.45;;;13.70;99.90;;;;;;4996520;28;20068;-91
2021/07/06 03:02:47;;;;;;;5.93;3.65;;;13.80;99.90;;;;;;4995556;28;20133;-89
2021/07/06 03:05:18;;;;;;;3.85;3.55;;;13.80;99.90;;;;;;4995618;28;20056;-89
2021/07/06 03:07:45;;;;;;;5.00;3.30;;;13.70;99.90;;;;;;4995601;28;20054;-89
2021/07/06 03:10:25;;;;;;;3.58;3.28;;;13.70;99.90;;;;;;4995906;28;20557;-89
2021/07/06 03:12:52;;;;;;;3.22;3.03;;;13.70;99.90;;;;;;4991341;28;20405;-89
2021/07/06 03:15:21;;;;;;;3.33;3.05;;;13.70;99.90;;;;;;4995651;28;20419;-89
2021/07/06 03:17:49;;;;;;;8.30;3.55;;;13.70;99.90;;;;;;4996369;28;20068;-90
2021/07/06 03:20:19;;;;;;;3.10;2.80;;;13.70;99.90;;;;;;4995317;28;20080;-89
2021/07/06 03:22:47;;;;;;;3.42;2.95;;;13.70;99.90;;;;;;4995195;28;20050;-89
2021/07/06 03:25:17;;;;;;;4.32;3.05;;;13.60;99.90;;;;;;4995972;28;20101;-89
2021/07/06 03:27:44;;;;;;;3.60;3.30;;;13.50;99.90;;;;;;4995124;28;20050;-89
2021/07/06 03:30:17;;;;;;;4.45;3.45;;;13.50;99.90;;;;;;4995287;28;20054;-89
2021/07/06 03:32:44;;;;;;;3.40;3.10;;;13.50;99.90;;;;;;4994997;28;20061;-89
2021/07/06 03:35:11;;;;;;;4.63;3.80;;;13.50;99.90;;;;;;4995147;28;20050;-89
2021/07/06 03:37:39;;;;;;;9.32;3.65;;;13.50;99.90;;;;;;4996053;28;20058;-89
2021/07/06 03:40:07;;;;;;;3.38;3.15;;;13.50;99.90;;;;;;4995191;28;20085;-90
2021/07/06 03:42:35;;;;;;;4.63;3.45;;;13.50;99.90;;;;;;4995050;28;20062;-89
2021/07/06 03:45:04;;;;;;;3.08;2.88;;;13.50;99.90;;;;;;4995755;28;20054;-89
2021/07/06 03:47:31;;;;;;;4.90;3.30;;;13.50;99.90;;;;;;4994940;28;20061;-89
2021/07/06 03:49:58;;;;;;;3.38;3.08;;;13.60;99.90;;;;;;4994704;28;20057;-89
2021/07/06 03:52:25;;;;;;;4.65;3.70;;;13.50;99.90;;;;;;4997495;28;20566;-89
2021/07/06 03:54:51;;;;;;;6.50;3.05;;;13.50;99.90;;;;;;4994856;28;20047;-88
2021/07/06 03:57:30;;;;;;;8.57;3.45;;;13.50;99.90;;;;;;4994495;28;20057;-89
2021/07/06 03:59:59;;;;;;;3.92;3.10;;;13.50;99.90;;;;;;4994873;28;20137;-89
2021/07/06 04:02:26;;;;;;;3.53;3.33;;;13.50;99.90;;;;;;4994570;28;20414;-89
2021/07/06 04:04:53;;;;;;;3.67;3.38;;;13.50;99.90;;;;;;4994489;28;20060;-89
2021/07/06 04:07:20;;;;;;;3.60;3.30;;;13.50;99.90;;;;;;4996735;28;20068;-89
2021/07/06 04:09:47;;;;;;;3.40;3.28;;;13.50;99.90;;;;;;4998409;28;20109;-89
2021/07/06 04:12:14;;;;;;;5.32;3.90;;;13.50;99.90;;;;;;4998528;28;20073;-89
2021/07/06 04:14:41;;;;;;;3.95;3.75;;;13.50;99.90;;;;;;4997618;28;20463;-89
2021/07/06 04:17:08;;;;;;;4.28;3.88;;;13.50;99.90;;;;;;5010788;28;20070;-90
2021/07/06 04:19:35;;;;;;;5.05;4.40;;;13.60;99.90;;;;;;4997065;28;20054;-90
2021/07/06 04:22:02;;;;;;;3.90;3.60;;;13.70;99.90;;;;;;4994245;28;20054;-89
2021/07/06 04:24:30;;;;;;;5.47;3.38;;;13.70;99.90;;;;;;4994624;28;20501;-89
2021/07/06 04:27:00;;;;;;;3.78;3.47;;;13.70;99.90;;;;;;4994327;28;20057;-89
2021/07/06 04:29:27;;;;;;;4.47;4.10;;;13.80;99.90;;;;;;4993978;28;20483;-89
2021/07/06 04:31:54;;;;;;;3.65;3.17;;;13.90;99.90;;;;;;4994202;28;20054;-90
2021/07/06 04:34:22;;;;;;;4.45;2.78;;;13.90;99.90;;;;;;4994065;28;20046;-89
2021/07/06 04:36:49;;;;;;;3.28;3.08;;;14.00;99.90;;;;;;4994148;28;20129;-90
2021/07/06 04:39:16;;;;;;;3.63;3.30;;;14.00;99.90;;;;;;4994210;28;20133;-89
2021/07/06 04:41:47;;;;;;;4.72;3.90;;;14.00;99.90;;;;;;4994168;28;20128;-90
2021/07/06 04:44:14;;;;;;;6.20;4.28;;;14.10;99.90;;;;;;4994094;28;20140;-90
2021/07/06 04:46:42;;;;;;;3.30;3.20;;;14.10;99.90;;;;;;4993793;28;20086;-90
2021/07/06 04:49:09;;;;;;;6.78;3.55;;;14.30;99.90;;;;;;4994010;28;20132;-90
2021/07/06 04:51:36;;;;;;;3.47;3.25;;;14.40;99.90;;;;;;4993607;28;20050;-89
2021/07/06 04:54:03;;;;;;;4.05;3.47;;;14.50;99.90;;;;;;4993950;28;20046;-89
2021/07/06 04:56:30;;;;;;;3.60;3.42;;;14.60;99.90;;;;;;4993853;28;20053;-90
2021/07/06 04:58:57;;;;;;;3.97;3.60;;;14.70;99.90;;;;;;4993640;28;20070;-89
2021/07/06 05:01:24;;;;;;;3.13;2.75;;;14.80;99.90;;;;;;4993189;28;20068;-89
2021/07/06 05:03:51;;;;;;;6.07;2.72;;;15.10;99.90;;;;;;5009563;28;20050;-89
2021/07/06 05:06:19;;;;;;;6.45;2.58;;;15.10;99.90;;;;;;4993141;28;20421;-89
2021/07/06 05:08:46;;;;;;;8.50;3.63;;;15.30;99.90;;;;;;4990194;28;20133;-90
2021/07/06 05:11:14;;;;;;;6.50;3.05;;;15.60;99.90;;;;;;5009398;28;20046;-90
2021/07/06 05:13:41;;;;;;;2.80;2.60;;;15.60;99.90;;;;;;5008865;28;20050;-90
2021/07/06 05:16:09;;;;;;;3.63;3.00;;;15.70;99.90;;;;;;5008878;28;20438;-90
2021/07/06 05:18:36;;;;;;;2.20;2.00;;;16.30;99.90;;;;;;5009074;28;20097;-90
2021/07/06 05:21:03;;;;;;;2.63;1.67;;;17.40;99.90;;;;;;5009654;28;20056;-90
2021/07/06 05:23:30;;;;;;;1.08;0.98;;;19.30;99.90;;;;;;4994404;28;20469;-90
2021/07/06 05:25:58;;;;;;;1.45;1.27;;;21.00;99.90;;;;;;4996863;28;20070;-90
2021/07/06 05:28:25;;;;;;;4.50;1.50;;;22.90;99.90;;;;;;4995103;28;20162;-91
2021/07/06 05:30:52;;;;;;;4.80;2.28;;;24.30;99.90;;;;;;4995431;28;20050;-89
2021/07/06 05:33:18;;;;;;;4.20;1.83;;;25.40;99.90;;;;;;4996862;28;20055;-88
2021/07/06 05:35:47;;;;;;;8.95;2.20;;;26.30;99.90;;;;;;5005502;28;20137;-89
2021/07/06 05:38:13;;;;;;;9.45;3.50;;;27.00;99.90;;;;;;5004340;28;20573;-89
2021/07/06 05:41:01;;;;;;;17.27;5.28;;;27.40;99.90;;;;;;4993506;28;20078;-89
2021/07/06 05:43:29;;;;;;;11.38;4.07;;;28.90;99.90;;;;;;4993031;28;20114;-90
2021/07/06 05:45:56;;;;;;;13.00;4.03;;;29.60;99.90;;;;;;4993391;28;20121;-89
2021/07/06 05:48:23;;;;;;;13.68;4.90;;;30.10;98.00;;;;;;4993611;28;20051;-89
2021/07/06 05:50:50;;;;;;;15.07;5.28;;;30.90;94.60;;;;;;4993811;28;20054;-89
2021/07/06 05:53:17;;;;;;;18.70;5.47;;;31.70;91.60;;;;;;4992791;28;20130;-89
2021/07/06 05:55:44;;;;;;;15.70;5.13;;;32.20;90.40;;;;;;4993124;28;20149;-89
2021/07/06 05:58:11;;;;;;;17.65;5.57;;;32.70;86.10;;;;;;4993186;28;20050;-90
2021/07/06 06:00:39;;;;;;;16.33;5.35;;;32.80;84.70;;;;;;4993041;28;20140;-90
2021/07/06 06:03:10;;;;;;;43.22;12.63;;;31.60;86.20;;;;;;4993471;28;20061;-90
2021/07/06 06:05:38;;;;;;;31.02;8.00;;;31.60;84.40;;;;;;4993038;28;20483;-90
2021/07/06 06:08:05;;;;;;;14.15;5.18;;;31.80;86.30;;;;;;4993825;28;20072;-91
2021/07/06 06:10:32;;;;;;;11.55;2.58;;;32.00;85.80;;;;;;4993176;28;20050;-90
2021/07/06 06:12:59;;;;;;;6.90;2.22;;;31.30;85.10;;;;;;4993355;28;20085;-90
2021/07/06 06:15:26;;;;;;;5.32;1.60;;;31.20;88.10;;;;;;4993177;28;20116;-90
2021/07/06 06:17:53;;;;;;;3.47;1.73;;;32.00;86.70;;;;;;4992167;28;20073;-90
2021/07/06 06:20:20;;;;;;;6.22;1.20;;;32.10;88.40;;;;;;4994993;28;20547;-90
2021/07/06 06:22:47;;;;;;;4.75;1.30;;;32.20;86.80;;;;;;4996152;28;20066;-90
2021/07/06 06:25:14;;;;;;;7.80;1.63;;;33.10;84.20;;;;;;4996595;28;20054;-88
2021/07/06 06:27:41;;;;;;;1.52;0.80;;;34.10;80.40;;;;;;4996536;28;20145;-89
2021/07/06 06:30:10;;;;;;;3.30;0.60;;;34.30;78.60;;;;;;4999099;28;20057;-89
2021/07/06 06:32:37;;;;;;;2.90;0.90;;;35.10;75.70;;;;;;5001889;28;20122;-90
2021/07/06 06:35:04;;;;;;;1.23;0.40;;;35.90;72.10;;;;;;5014479;28;20126;-93
2021/07/06 06:37:31;;;;;;;0.50;0.50;;;36.60;67.50;;;;;;5009423;28;20141;-91
2021/07/06 06:39:57;;;;;;;1.83;0.60;;;35.80;67.00;;;;;;4996022;28;20061;-90
2021/07/06 06:42:24;;;;;;;1.95;0.50;;;35.70;66.00;;;;;;5012705;28;20133;-89
2021/07/06 06:44:51;;;;;;;1.15;0.57;;;35.40;66.20;;;;;;5012626;28;20049;-90
2021/07/06 06:47:18;;;;;;;2.78;0.40;;;34.20;66.60;;;;;;5012499;28;20465;-90
2021/07/06 06:49:45;;;;;;;4.35;0.60;;;34.60;65.90;;;;;;5012214;28;20058;-90
2021/07/06 06:52:12;;;;;;;1.20;0.40;;;34.80;66.30;;;;;;5012763;28;20046;-92
2021/07/06 06:54:39;;;;;;;1.00;0.55;;;35.10;64.20;;;;;;5022013;28;20118;-92
2021/07/06 06:57:05;;;;;;;0.40;0.40;;;35.20;64.20;;;;;;5031878;28;20109;-90
2021/07/06 06:59:33;;;;;;;0.73;0.50;;;35.00;64.40;;;;;;4998478;28;20140;-91
2021/07/06 07:02:18;;;;;;;0.43;0.43;;;34.90;63.90;;;;;;5012278;28;20053;-89
2021/07/06 07:04:47;;;;;;;3.22;0.57;;;34.70;65.00;;;;;;5012147;28;20137;-90
2021/07/06 07:07:15;;;;;;;0.50;0.47;;;34.90;64.40;;;;;;5012323;28;20471;-90
2021/07/06 07:09:47;;;;;;;2.15;0.30;;;35.90;64.70;;;;;;5011323;28;20047;-90
2021/07/06 07:12:16;;;;;;;0.75;0.30;;;36.20;63.00;;;;;;4996890;28;20054;-89
2021/07/06 07:14:43;;;;;;;0.93;0.30;;;36.40;61.30;;;;;;5011852;28;20050;-92
2021/07/06 07:17:11;;;;;;;0.30;0.30;;;37.70;59.70;;;;;;5011401;28;20042;-92
2021/07/06 07:19:39;;;;;;;2.05;0.50;;;38.60;58.30;;;;;;5012546;28;20723;-91
2021/07/06 07:22:06;;;;;;;0.95;0.60;;;37.90;57.40;;;;;;4995977;28;20511;-90
2021/07/06 07:24:34;;;;;;;1.00;0.30;;;37.30;57.90;;;;;;5011720;28;20599;-91
2021/07/06 07:27:01;;;;;;;2.17;0.43;;;37.10;56.80;;;;;;5011354;28;20074;-91
2021/07/06 07:29:28;;;;;;;0.35;0.30;;;37.40;57.20;;;;;;5011708;28;20054;-92
2021/07/06 07:31:55;;;;;;;4.30;0.60;;;37.70;56.60;;;;;;4996014;28;20054;-92
2021/07/06 07:34:22;;;;;;;0.80;0.32;;;37.20;58.20;;;;;;5011575;28;20407;-93
2021/07/06 07:36:49;;;;;;;0.20;0.20;;;37.40;56.30;;;;;;5011401;28;20057;-92
2021/07/06 07:39:17;;;;;;;0.30;0.30;;;38.30;55.70;;;;;;5011086;28;20395;-93
2021/07/06 07:41:44;;;;;;;1.25;0.35;;;38.30;55.70;;;;;;5010526;28;20054;-91
2021/07/06 07:44:11;;;;;;;0.73;0.30;;;38.40;55.50;;;;;;5011420;28;20418;-90
2021/07/06 07:46:38;;;;;;;13.35;2.90;;;37.10;55.90;;;;;;5011875;28;20046;-90
2021/07/06 07:49:05;;;;;;;2.50;0.63;;;35.70;57.00;;;;;;5011348;28;20046;-91
2021/07/06 07:51:31;;;;;;;0.45;0.43;;;36.30;58.80;;;;;;5010965;28;20575;-93
2021/07/06 07:53:58;;;;;;;0.82;0.40;;;37.70;56.90;;;;;;5011252;28;20104;-91
2021/07/06 07:56:25;;;;;;;5.22;2.05;;;39.40;54.90;;;;;;4995847;28;20085;-91
2021/07/06 07:58:52;;;;;;;1.55;0.75;;;38.20;53.70;;;;;;5011095;28;20508;-89
2021/07/06 08:01:19;;;;;;;2.80;0.63;;;36.80;53.60;;;;;;5009440;28;20074;-89
2021/07/06 08:03:46;;;;;;;0.40;0.30;;;36.70;57.10;;;;;;5009777;28;20050;-89
2021/07/06 08:06:13;;;;;;;4.75;0.50;;;37.20;55.50;;;;;;5009001;28;20056;-90
2021/07/06 08:08:40;;;;;;;1.27;0.60;;;38.40;56.50;;;;;;5009392;28;20047;-90
2021/07/06 08:11:07;;;;;;;1.83;0.50;;;39.00;53.10;;;;;;5009002;28;20052;-91
2021/07/06 08:13:35;;;;;;;1.65;0.60;;;39.20;52.50;;;;;;5009404;28;20550;-89
2021/07/06 08:16:03;;;;;;;1.20;0.50;;;38.50;54.50;;;;;;5026140;28;20042;-90
2021/07/06 08:18:30;;;;;;;2.03;0.40;;;39.70;52.10;;;;;;5003464;28;20057;-92
2021/07/06 08:20:57;;;;;;;3.08;1.13;;;38.50;53.00;;;;;;5010657;28;20054;-91
2021/07/06 08:23:24;;;;;;;11.10;3.28;;;38.20;53.80;;;;;;5011071;28;20085;-93
2021/07/06 08:25:53;;;;;;;3.00;0.77;;;37.00;53.30;;;;;;5010994;28;20082;-92
2021/07/06 08:28:22;;;;;;;2.65;0.50;;;38.60;54.50;;;;;;4994530;28;20133;-91
2021/07/06 08:30:49;;;;;;;2.17;0.40;;;40.10;54.00;;;;;;5011827;28;20058;-93
2021/07/06 08:33:17;;;;;;;0.52;0.30;;;41.80;50.50;;;;;;5010897;28;20145;-92
2021/07/06 08:35:45;;;;;;;0.55;0.30;;;42.40;48.70;;;;;;4994133;28;20054;-90
2021/07/06 08:38:16;;;;;;;2.85;1.27;;;41.60;49.00;;;;;;5010523;28;20089;-91
2021/07/06 08:40:43;;;;;;;1.75;0.30;;;41.60;50.10;;;;;;4995227;28;20047;-93
2021/07/06 08:43:12;;;;;;;2.15;1.05;;;40.90;49.20;;;;;;4995023;28;20056;-93
2021/07/06 08:45:41;;;;;;;3.97;1.23;;;41.10;48.40;;;;;;4996221;28;20082;-91
2021/07/06 08:48:10;;;;;;;2.80;1.00;;;40.40;48.20;;;;;;5009895;28;20503;-91
2021/07/06 08:50:37;;;;;;;2.55;0.60;;;38.80;51.40;;;;;;5010746;28;20082;-91
2021/07/06 08:53:04;;;;;;;0.52;0.38;;;39.80;50.60;;;;;;5024919;28;20039;-91
2021/07/06 08:55:31;;;;;;;0.63;0.50;;;41.20;49.80;;;;;;5009227;28;20061;-92
2021/07/06 08:57:58;;;;;;;1.77;0.40;;;42.70;48.10;;;;;;5014624;28;20483;-91
2021/07/06 09:00:29;;;;;;;1.15;0.50;;;42.60;47.90;;;;;;5010938;28;20050;-93
2021/07/06 09:03:09;;;;;;;1.50;0.40;;;41.90;47.70;;;;;;4995707;28;20048;-92
2021/07/06 09:05:37;;;;;;;1.38;0.40;;;42.70;47.10;;;;;;4993895;28;20475;-93
2021/07/06 09:08:08;;;;;;;0.30;0.30;;;42.30;47.30;;;;;;4995575;28;20165;-93
2021/07/06 09:10:39;;;;;;;2.00;0.50;;;42.00;47.90;;;;;;4995313;28;20049;-91
2021/07/06 09:13:27;;;;;;;2.92;0.60;;;42.50;47.60;;;;;;5010526;28;20052;-94
2021/07/06 09:15:56;;;;;;;4.63;0.30;;;42.80;46.70;;;;;;5009834;28;20050;-93
2021/07/06 09:18:32;;;;;;;2.22;0.50;;;42.10;47.20;;;;;;5010250;28;20553;-93
2021/07/06 09:21:07;;;;;;;2.38;0.60;;;41.20;48.00;;;;;;5010719;28;20105;-88
2021/07/06 09:23:42;;;;;;;0.40;0.40;;;40.40;49.00;;;;;;4994190;28;20555;-92
2021/07/06 09:26:25;;;;;;;5.80;0.80;;;40.60;49.70;;;;;;5009839;28;20464;-90
2021/07/06 09:28:57;;;;;;;0.57;0.30;;;41.60;47.50;;;;;;5010386;28;20078;-92
2021/07/06 09:31:27;;;;;;;3.47;1.42;;;40.80;48.00;;;;;;5010633;28;20054;-93
2021/07/06 09:34:02;;;;;;;2.90;0.57;;;41.30;47.60;;;;;;5010323;28;20054;-92
2021/07/06 09:36:31;;;;;;;3.50;3.20;;;40.80;47.80;;;;;;5032199;28;20051;-90
2021/07/06 09:39:02;;;;;;;5.95;1.60;;;40.80;48.30;;;;;;5020643;28;20081;-91
2021/07/06 09:41:30;;;;;;;4.15;1.40;;;41.10;48.00;;;;;;5009804;28;20555;-89
2021/07/06 09:44:24;;;;;;;2.10;0.40;;;40.00;48.80;;;;;;5010268;28;20058;-91
2021/07/06 09:46:57;;;;;;;18.33;3.35;;;39.90;48.40;;;;;;5011159;28;20047;-90
2021/07/06 09:49:27;;;;;;;9.45;1.55;;;38.30;51.10;;;;;;5010273;28;20137;-92
2021/07/06 09:51:57;;;;;;;1.63;0.50;;;38.30;52.40;;;;;;5010283;28;20463;-93
2021/07/06 09:54:25;;;;;;;2.58;0.80;;;39.80;49.90;;;;;;5012582;28;20051;-90
2021/07/06 09:57:01;;;;;;;3.33;0.50;;;40.00;49.00;;;;;;5013512;28;20133;-90
2021/07/06 09:59:28;;;;;;;0.60;0.60;;;39.90;50.00;;;;;;5013177;28;20058;-91
2021/07/06 10:01:58;;;;;;;1.52;0.30;;;39.40;51.30;;;;;;5013678;28;20475;-93
2021/07/06 10:04:26;;;;;;;5.28;1.48;;;37.90;50.40;;;;;;5013707;28;20053;-89
2021/07/06 10:06:55;;;;;;;1.27;0.50;;;37.30;50.90;;;;;;5013651;28;20059;-92
2021/07/06 10:09:23;;;;;;;8.50;2.97;;;36.50;51.90;;;;;;5014342;28;20058;-93
2021/07/06 10:11:52;;;;;;;1.75;1.65;;;35.10;54.90;;;;;;5013568;28;20058;-90
2021/07/06 10:14:20;;;;;;;1.13;0.65;;;35.30;56.00;;;;;;5013276;28;20137;-91
2021/07/06 10:16:47;;;;;;;1.80;1.70;;;35.50;55.60;;;;;;5013018;28;20051;-91
2021/07/06 10:19:14;;;;;;;3.80;0.80;;;36.40;55.90;;;;;;5013330;28;20054;-93
2021/07/06 10:21:41;;;;;;;3.63;1.25;;;36.20;54.80;;;;;;5012528;28;20060;-90
2021/07/06 10:24:08;;;;;;;5.18;1.70;;;35.80;54.10;;;;;;5012840;28;20487;-89
2021/07/06 10:26:39;;;;;;;1.65;0.80;;;34.60;55.40;;;;;;5012648;28;20590;-93
2021/07/06 10:29:05;;;;;;;0.60;0.60;;;34.60;56.60;;;;;;5013043;28;20406;-91
2021/07/06 10:31:41;;;;;;;1.67;0.50;;;34.40;56.80;;;;;;5012657;28;20129;-90
2021/07/06 10:34:26;;;;;;;0.55;0.30;;;34.10;58.20;;;;;;5013116;28;20058;-91
2021/07/06 10:36:53;;;;;;;1.55;0.38;;;33.90;57.90;;;;;;5012888;28;20046;-92
2021/07/06 10:39:43;;;;;;;3.03;1.00;;;33.90;58.00;;;;;;5012326;28;20142;-90
2021/07/06 10:42:10;;;;;;;1.58;0.52;;;33.40;59.90;;;;;;4996437;28;20056;-89
2021/07/06 10:44:39;;;;;;;3.72;1.00;;;33.60;60.20;;;;;;5012523;28;20153;-89
2021/07/06 10:47:36;;;;;;;2.35;0.80;;;34.10;58.10;;;;;;5012465;28;20467;-92
2021/07/06 10:50:23;;;;;;;0.88;0.70;;;35.40;57.30;;;;;;4996329;28;20058;-89
2021/07/06 10:53:25;;;;;;;3.80;1.50;;;36.10;55.90;;;;;;5013321;28;20332;-88
2021/07/06 10:56:06;;;;;;;2.88;1.35;;;35.90;55.20;;;;;;5005588;28;20609;-91
2021/07/06 10:58:58;;;;;;;0.75;0.50;;;35.20;57.60;;;;;;5030894;28;20054;-91
2021/07/06 11:01:37;;;;;;;1.83;1.38;;;34.40;56.80;;;;;;5013398;28;20062;-90
2021/07/06 11:04:12;;;;;;;1.30;0.68;;;33.30;57.40;;;;;;5011520;28;20487;-91
2021/07/06 11:06:45;;;;;;;1.13;0.47;;;33.90;59.60;;;;;;5011392;28;20054;-92
2021/07/06 11:09:24;;;;;;;2.03;0.40;;;34.80;57.90;;;;;;5012341;28;20140;-90
2021/07/06 11:11:51;;;;;;;3.40;0.40;;;34.80;56.90;;;;;;5012330;28;20058;-91
2021/07/06 11:14:23;;;;;;;1.75;0.70;;;34.60;56.50;;;;;;5017047;28;20053;-92
2021/07/06 11:17:00;;;;;;;1.98;0.60;;;33.50;58.50;;;;;;5026576;28;20081;-90
2021/07/06 11:19:40;;;;;;;6.28;1.42;;;32.90;58.80;;;;;;5020163;28;20058;-90
2021/07/06 11:22:11;;;;;;;4.82;1.50;;;32.20;61.60;;;;;;5011942;28;20145;-92
2021/07/06 11:24:43;;;;;;;1.85;0.40;;;32.00;62.20;;;;;;5011916;28;20142;-92
2021/07/06 11:27:13;;;;;;;3.72;0.40;;;31.60;61.50;;;;;;4996088;28;20053;-94
2021/07/06 11:29:41;;;;;;;1.52;0.45;;;30.70;63.30;;;;;;5011765;28;20054;-89
2021/07/06 11:32:11;;;;;;;1.55;0.40;;;30.20;66.20;;;;;;5012436;28;20579;-91
2021/07/06 11:34:39;;;;;;;0.93;0.50;;;29.50;66.60;;;;;;5011504;28;20054;-90
2021/07/06 11:37:09;;;;;;;0.73;0.70;;;29.10;70.20;;;;;;5011568;28;20046;-91
2021/07/06 11:39:36;;;;;;;0.45;0.45;;;28.80;70.70;;;;;;5011123;28;20050;-92
2021/07/06 11:42:07;;;;;;;4.25;0.50;;;28.50;72.20;;;;;;5011937;28;20060;-89
2021/07/06 11:44:34;;;;;;;0.80;0.40;;;28.10;74.30;;;;;;5012000;28;20050;-91
2021/07/06 11:47:19;;;;;;;2.00;0.47;;;27.60;86.00;;;;;;5011667;28;20066;-89
2021/07/06 11:49:46;;;;;;;3.55;0.70;;;26.70;99.90;;;;;;5011473;28;20515;-87
2021/07/06 11:52:13;;;;;;;3.15;0.80;;;25.80;99.90;;;;;;5011193;28;20042;-89
2021/07/06 11:54:43;;;;;;;2.30;0.55;;;25.30;99.90;;;;;;5011242;28;20133;-89
2021/07/06 11:57:10;;;;;;;0.75;0.75;;;24.70;99.90;;;;;;5011257;28;20122;-88
2021/07/06 11:59:37;;;;;;;4.20;1.05;;;24.10;99.90;;;;;;5010720;28;20050;-88
2021/07/06 12:02:11;;;;;;;2.08;0.75;;;23.50;99.90;;;;;;5010890;28;20077;-93
2021/07/06 12:04:39;;;;;;;6.47;1.00;;;23.10;99.90;;;;;;5011197;28;20081;-93
2021/07/06 12:07:07;;;;;;;3.85;0.90;;;22.80;99.90;;;;;;5010743;28;20046;-88
2021/07/06 12:09:35;;;;;;;2.58;0.90;;;22.60;99.90;;;;;;5010623;28;20406;-88
2021/07/06 12:12:16;;;;;;;1.35;1.25;;;22.60;99.90;;;;;;5011225;28;20126;-86
2021/07/06 12:14:45;;;;;;;3.85;1.20;;;22.50;99.90;;;;;;5010349;28;20050;-88
2021/07/06 12:17:24;;;;;;;2.05;1.20;;;22.50;99.90;;;;;;5024177;28;20058;-88
2021/07/06 12:19:52;;;;;;;5.45;1.10;;;22.50;99.90;;;;;;5017427;28;20050;-86
2021/07/06 12:22:20;;;;;;;1.00;0.90;;;22.40;99.90;;;;;;5010487;28;20133;-87
2021/07/06 12:24:48;;;;;;;2.65;1.10;;;22.40;99.90;;;;;;5010316;28;20065;-87
2021/07/06 12:27:17;;;;;;;3.65;1.13;;;22.30;99.90;;;;;;5010495;28;20056;-86
2021/07/06 12:29:52;;;;;;;3.17;0.98;;;22.10;99.90;;;;;;5009931;28;20062;-86
2021/07/06 12:32:19;;;;;;;1.40;1.27;;;22.10;99.90;;;;;;5010589;28;20061;-88
2021/07/06 12:34:57;;;;;;;3.63;1.23;;;22.10;99.90;;;;;;5010288;28;20054;-89
2021/07/06 12:37:26;;;;;;;5.40;2.15;;;22.30;99.90;;;;;;5010281;28;20052;-89
2021/07/06 12:40:03;;;;;;;3.92;1.25;;;22.40;99.90;;;;;;5010005;28;20054;-88
2021/07/06 12:42:36;;;;;;;2.53;0.90;;;22.40;99.90;;;;;;5010416;28;20056;-91
2021/07/06 12:45:08;;;;;;;2.65;1.13;;;22.40;99.90;;;;;;5010141;28;20046;-90
2021/07/06 12:47:43;;;;;;;1.45;0.90;;;22.70;99.90;;;;;;5009810;28;20072;-87
2021/07/06 12:50:22;;;;;;;0.98;0.80;;;22.90;99.90;;;;;;5009922;28;20054;-88
2021/07/06 12:53:04;;;;;;;3.72;0.70;;;23.40;99.90;;;;;;5011507;28;20077;-90
2021/07/06 12:55:32;;;;;;;2.83;0.50;;;23.70;99.90;;;;;;5010415;28;20101;-87